< < Back
Terminal Aerodrome Forecast


Current Version              Previous Versions:   1  2  3  4  5  6  7  8  9  

Terminal Aerodrome Forecast

427
FTUS44 KMRX 271720
TAFTYS
TAF
KTYS 271720Z 2718/2818 VRB05KT P6SM SCT050
     FM280100 VRB02KT P6SM FEW070 SCT150
     FM281500 VRB05KT P6SM FEW045 SCT150=

Latest METAR

514
SAUS80 KWBC 280200
MTRTYS
METAR KTYS 280153Z 09003KT 10SM FEW100 23/21 A3015 RMK AO2 SLP198
T02330206


USA.gov is the U.S. government's official web portal to all federal, state and local government web resources and services.